Time;durP1;ratioP1;P1;durP2;ratioP2;P2;SDS_P1;SDS_P2;PMS_P1;PMS_P2;Temp;Humidity;BMP_temperature;BMP_pressure;BME280_temperature;BME280_humidity;BME280_pressure;Samples;Min_cycle;Max_cycle;Signal;HPM_P1;HPM_P2
2022/01/17 07:58:44;;;;;;;22.50;11.50;;;;;;;0.85;100.00;100669.22;5110427;27;20411;-82
2022/01/17 08:01:11;;;;;;;19.80;9.50;;;;;;;0.98;100.00;100680.13;5114250;28;20047;-82
2022/01/17 08:03:38;;;;;;;29.23;11.45;;;;;;;0.95;100.00;100656.19;5110901;28;20044;-82
2022/01/17 08:06:05;;;;;;;22.73;10.20;;;;;;;0.98;100.00;100655.13;5111024;28;20039;-82
2022/01/17 08:08:33;;;;;;;22.42;10.30;;;;;;;1.18;100.00;100662.06;5113436;28;20213;-82
2022/01/17 08:11:02;;;;;;;25.52;10.68;;;;;;;1.17;100.00;100652.28;5131877;28;20497;-83
2022/01/17 08:13:29;;;;;;;24.75;11.45;;;;;;;1.12;100.00;100639.16;5103472;28;20047;-82
2022/01/17 08:15:57;;;;;;;22.45;10.75;;;;;;;1.18;100.00;100646.84;5112908;28;20048;-82
2022/01/17 08:18:24;;;;;;;24.92;11.23;;;;;;;1.22;100.00;100669.81;5113508;28;20079;-83
2022/01/17 08:20:51;;;;;;;23.75;11.02;;;;;;;1.16;100.00;100663.94;5119330;28;20048;-83
2022/01/17 08:23:21;;;;;;;29.00;11.68;;;;;;;1.27;100.00;100668.72;5087164;28;20058;-82
2022/01/17 08:25:48;;;;;;;;;;;;;;;1.29;100.00;100681.03;5090601;28;20050;-83
2022/01/17 08:28:15;;;;;;;19.80;9.73;;;;;;;1.22;100.00;100680.53;5090231;28;19928;-83
2022/01/17 08:30:42;;;;;;;23.60;10.82;;;;;;;1.18;100.00;100678.13;5092903;28;20048;-83
2022/01/17 08:33:10;;;;;;;21.95;11.10;;;;;;;1.24;100.00;100675.94;5103259;28;20052;-82
2022/01/17 08:35:37;;;;;;;25.08;10.82;;;;;;;1.33;100.00;100693.31;5069709;28;20052;-82
2022/01/17 08:38:04;;;;;;;22.90;10.32;;;;;;;1.27;100.00;100672.25;5071709;28;20041;-83
2022/01/17 08:40:31;;;;;;;21.75;10.25;;;;;;;1.40;100.00;100689.34;5089917;28;20402;-82
2022/01/17 08:42:59;;;;;;;22.77;10.45;;;;;;;1.38;100.00;100669.78;5088859;28;20040;-83
2022/01/17 08:45:26;;;;;;;22.52;10.73;;;;;;;1.58;100.00;100682.03;5070050;28;20404;-83
2022/01/17 08:47:53;;;;;;;25.95;10.88;;;;;;;1.53;100.00;100673.38;5079405;28;20048;-83
2022/01/17 08:50:23;;;;;;;28.20;10.82;;;;;;;1.51;100.00;100675.31;5105219;28;20047;-82
2022/01/17 08:52:50;;;;;;;26.05;12.32;;;;;;;1.62;100.00;100682.72;5089797;28;20083;-83
2022/01/17 08:55:18;;;;;;;23.20;10.80;;;;;;;1.63;100.00;100667.53;5075369;28;20048;-83
2022/01/17 08:57:46;;;;;;;21.80;11.10;;;;;;;1.68;100.00;100668.09;5097420;28;20119;-83
2022/01/17 09:00:16;;;;;;;18.50;10.40;;;;;;;1.79;100.00;100668.31;5079446;28;20044;-83
2022/01/17 09:02:43;;;;;;;18.05;9.07;;;;;;;1.86;100.00;100675.03;5089702;28;20127;-83
2022/01/17 09:05:10;;;;;;;22.50;10.18;;;;;;;1.79;100.00;100681.72;5097222;28;20053;-83
2022/01/17 09:07:39;;;;;;;19.90;10.48;;;;;;;1.90;100.00;100687.31;5092480;28;20559;-83
2022/01/17 09:10:07;;;;;;;23.42;10.25;;;;;;;1.86;100.00;100695.63;5082309;28;20040;-83
2022/01/17 09:12:43;;;;;;;19.48;8.68;;;;;;;1.81;100.00;100700.38;5085336;28;20045;-87
2022/01/17 09:15:10;;;;;;;17.90;10.18;;;;;;;1.72;100.00;100673.19;5080929;28;20059;-83
2022/01/17 09:17:38;;;;;;;27.27;12.48;;;;;;;1.91;100.00;100701.56;5075520;28;20045;-82
2022/01/17 09:20:09;;;;;;;19.00;9.52;;;;;;;1.89;100.00;100696.31;5062473;28;20041;-82
2022/01/17 09:22:35;;;;;;;19.55;8.63;;;;;;;1.80;100.00;100686.13;5074853;28;20405;-83
2022/01/17 09:25:06;;;;;;;17.35;9.85;;;;;;;1.87;100.00;100698.22;5071444;28;20052;-83
2022/01/17 09:27:33;;;;;;;17.73;8.93;;;;;;;1.77;100.00;100697.88;5090048;28;20437;-83
2022/01/17 09:30:00;;;;;;;17.95;9.27;;;;;;;1.86;100.00;100712.56;5075485;28;20052;-83
2022/01/17 09:32:27;;;;;;;16.02;7.85;;;;;;;1.75;100.00;100710.53;5058433;28;20040;-82
2022/01/17 09:34:53;;;;;;;17.65;7.85;;;;;;;1.89;100.00;100723.13;5079638;28;20044;-83
2022/01/17 09:37:20;;;;;;;20.75;8.68;;;;;;;1.87;100.00;100727.72;5095981;28;20048;-83
2022/01/17 09:39:47;;;;;;;16.50;8.23;;;;;;;1.92;100.00;100747.06;5085256;28;20048;-82
2022/01/17 09:42:16;;;;;;;16.75;8.45;;;;;;;1.89;100.00;100735.69;5055475;28;20083;-83
2022/01/17 09:44:43;;;;;;;21.63;8.57;;;;;;;1.95;100.00;100781.75;5062491;28;20045;-83
2022/01/17 09:47:12;;;;;;;16.70;8.13;;;;;;;2.04;100.00;100774.16;5086263;28;20051;-83
2022/01/17 09:49:43;;;;;;;16.52;7.53;;;;;;;1.97;100.00;100751.31;5075489;28;20055;-83
2022/01/17 09:52:33;;;;;;;15.15;7.88;;;;;;;2.01;100.00;100760.91;5075126;28;20506;-83
2022/01/17 09:55:04;;;;;;;15.05;8.10;;;;;;;2.10;100.00;100773.78;5067176;28;20052;-83
2022/01/17 09:57:35;;;;;;;13.10;7.40;;;;;;;2.11;100.00;100746.00;5085418;28;20403;-83
2022/01/17 10:00:03;;;;;;;13.70;7.88;;;;;;;2.11;100.00;100768.31;5075936;28;20060;-83
2022/01/17 10:02:30;;;;;;;17.55;8.18;;;;;;;2.18;100.00;100759.91;5095150;28;20079;-83
2022/01/17 10:04:57;;;;;;;15.68;7.97;;;;;;;2.25;100.00;100750.53;5070206;28;20041;-82
2022/01/17 10:07:25;;;;;;;14.90;8.20;;;;;;;2.27;100.00;100762.91;5054927;28;20053;-83
2022/01/17 10:09:58;;;;;;;11.45;5.93;;;;;;;2.31;100.00;100755.53;5064280;28;20052;-83
2022/01/17 10:12:25;;;;;;;20.17;7.60;;;;;;;2.36;100.00;100755.25;5069795;28;20090;-82
2022/01/17 10:15:01;;;;;;;13.98;7.15;;;;;;;2.39;100.00;100744.31;5074594;28;20047;-83
2022/01/17 10:17:43;;;;;;;14.43;6.65;;;;;;;2.54;100.00;100758.63;5094856;28;20548;-83
2022/01/17 10:20:14;;;;;;;12.75;7.15;;;;;;;2.50;100.00;100740.97;5079906;28;20130;-83
2022/01/17 10:22:50;;;;;;;11.75;6.13;;;;;;;2.51;100.00;100740.03;5074219;28;20055;-83
2022/01/17 10:25:27;;;;;;;11.50;6.00;;;;;;;2.59;100.00;100743.09;5077456;28;20051;-83
2022/01/17 10:36:51;;;;;;;11.35;6.53;;;;;;;2.70;100.00;100758.56;5151420;27;20054;-83
2022/01/17 10:39:18;;;;;;;16.63;7.47;;;;;;;2.65;100.00;100761.53;5152125;27;20471;-83
2022/01/17 10:41:46;;;;;;;13.65;6.00;;;;;;;2.85;100.00;100778.22;5151985;27;20050;-83
2022/01/17 10:44:32;;;;;;;9.95;5.50;;;;;;;2.78;100.00;100781.28;5151961;27;20126;-83
2022/01/17 10:47:21;;;;;;;11.90;6.13;;;;;;;2.84;100.00;100777.34;5151798;27;20046;-83
2022/01/17 10:49:51;;;;;;;9.18;4.82;;;;;;;2.72;100.00;100753.94;5138357;27;20115;-83
2022/01/17 10:52:34;;;;;;;11.18;5.75;;;;;;;2.80;100.00;100749.81;5151581;27;20039;-83
2022/01/17 10:55:06;;;;;;;11.30;6.57;;;;;;;2.87;100.00;100782.53;5151200;27;20169;-83
2022/01/17 10:57:40;;;;;;;10.63;6.60;;;;;;;2.74;100.00;100790.50;5150057;27;20051;-82
2022/01/17 11:00:10;;;;;;;12.55;6.78;;;;;;;2.76;100.00;100785.03;5152037;27;20043;-83
2022/01/17 11:02:39;;;;;;;11.00;5.32;;;;;;;2.82;100.00;100784.66;5151699;27;20509;-83
2022/01/17 11:05:10;;;;;;;12.32;6.78;;;;;;;2.91;100.00;100777.84;5151606;27;20043;-83
2022/01/17 11:07:41;;;;;;;12.38;5.68;;;;;;;2.82;100.00;100777.44;5151175;27;20051;-83
2022/01/17 11:10:15;;;;;;;9.77;4.90;;;;;;;2.80;100.00;100776.69;5148683;27;20058;-83
2022/01/17 11:12:42;;;;;;;11.80;6.40;;;;;;;2.78;100.00;100778.59;5150377;27;20089;-83
2022/01/17 11:15:11;;;;;;;10.75;6.18;;;;;;;2.73;100.00;100775.34;5151357;27;20046;-83
2022/01/17 11:17:46;;;;;;;11.70;6.43;;;;;;;2.88;100.00;100788.78;5151467;27;20142;-83
2022/01/17 11:20:14;;;;;;;10.60;6.05;;;;;;;2.82;100.00;100763.16;5151582;27;20043;-83
2022/01/17 11:22:43;;;;;;;17.27;6.50;;;;;;;2.86;100.00;100788.00;5151155;27;20049;-84
2022/01/17 11:25:15;;;;;;;11.80;6.38;;;;;;;2.75;100.00;100767.19;5151440;27;20047;-83
2022/01/17 11:27:43;;;;;;;11.90;5.90;;;;;;;2.76;100.00;100775.16;5159512;27;20477;-85
2022/01/17 11:30:11;;;;;;;16.00;6.43;;;;;;;2.92;100.00;100796.56;5163959;27;20054;-84
2022/01/17 11:32:38;;;;;;;12.45;6.28;;;;;;;2.82;100.00;100788.19;5150890;27;20464;-83
2022/01/17 11:35:08;;;;;;;8.52;5.18;;;;;;;2.82;100.00;100779.28;5171618;27;20053;-84
2022/01/17 11:37:38;;;;;;;7.07;5.40;;;;;;;2.80;100.00;100781.19;5151961;27;20137;-83
2022/01/17 11:40:08;;;;;;;16.25;6.45;;;;;;;2.81;100.00;100769.47;5151240;27;20043;-83
2022/01/17 11:42:39;;;;;;;10.57;6.00;;;;;;;2.70;100.00;100759.41;5150539;27;20057;-84
2022/01/17 11:45:36;;;;;;;11.35;6.38;;;;;;;2.73;100.00;100761.91;5138518;27;20064;-83
2022/01/17 11:48:06;;;;;;;8.68;5.40;;;;;;;2.71;100.00;100753.09;5134735;27;20051;-83
2022/01/17 11:50:43;;;;;;;14.15;7.20;;;;;;;2.64;100.00;100759.78;5137043;27;20046;-82
2022/01/17 11:53:46;;;;;;;12.70;6.70;;;;;;;2.74;100.00;100750.22;5136434;27;20130;-83
2022/01/17 11:56:16;;;;;;;12.93;6.32;;;;;;;2.72;100.00;100717.19;5125727;27;20047;-83
2022/01/17 11:58:45;;;;;;;13.48;6.32;;;;;;;2.64;100.00;100698.03;5136742;27;20043;-83
2022/01/17 12:01:18;;;;;;;14.75;6.20;;;;;;;2.77;100.00;100703.47;5151282;27;20050;-82
2022/01/17 12:03:47;;;;;;;12.18;6.30;;;;;;;2.75;100.00;100726.91;5116311;28;20051;-83
2022/01/17 12:06:23;;;;;;;9.85;5.60;;;;;;;2.77;100.00;100735.72;5131006;27;20581;-83
2022/01/17 12:09:12;;;;;;;10.98;6.72;;;;;;;2.79;100.00;100764.22;5136105;27;20043;-83
2022/01/17 12:11:39;;;;;;;13.40;6.22;;;;;;;2.78;100.00;100765.16;5136314;27;20745;-83
2022/01/17 12:14:27;;;;;;;12.52;7.15;;;;;;;2.76;100.00;100742.91;5136796;27;20129;-83
2022/01/17 12:16:54;;;;;;;13.05;6.68;;;;;;;2.88;100.00;100765.47;5141523;27;21684;-83
2022/01/17 12:19:22;;;;;;;12.40;6.97;;;;;;;2.85;100.00;100762.13;5136440;27;20521;-83
2022/01/17 12:21:54;;;;;;;12.90;7.13;;;;;;;2.83;100.00;100749.63;5144648;27;20054;-83
2022/01/17 12:24:38;;;;;;;12.35;6.90;;;;;;;2.80;100.00;100755.19;5141950;27;20051;-83
2022/01/17 12:27:26;;;;;;;13.98;7.25;;;;;;;2.84;100.00;100726.31;5133113;27;20043;-83
2022/01/17 12:29:58;;;;;;;12.55;7.35;;;;;;;2.93;100.00;100733.78;5136231;27;20047;-83
2022/01/17 12:32:47;;;;;;;15.07;7.47;;;;;;;2.70;100.00;100718.28;5135899;27;20483;-83
2022/01/17 12:35:26;;;;;;;13.98;6.88;;;;;;;2.69;100.00;100743.41;5131976;27;20043;-83
2022/01/17 12:38:04;;;;;;;10.68;6.05;;;;;;;2.88;100.00;100748.50;5127215;27;20486;-83
2022/01/17 12:40:33;;;;;;;13.00;7.28;;;;;;;2.78;100.00;100707.91;5148474;27;20046;-83
2022/01/17 12:43:03;;;;;;;14.50;7.70;;;;;;;2.78;100.00;100721.34;5135746;27;20047;-83
2022/01/17 12:45:32;;;;;;;;;;;;;;;2.87;100.00;100726.13;5136013;27;20647;-83
2022/01/17 12:48:01;;;;;;;13.15;6.93;;;;;;;2.75;100.00;100716.16;5136338;27;19923;-83
2022/01/17 12:50:32;;;;;;;14.07;6.35;;;;;;;2.83;100.00;100735.31;5134951;27;20047;-83
2022/01/17 12:53:00;;;;;;;13.40;7.30;;;;;;;2.67;100.00;100723.84;5133598;27;20051;-82
2022/01/17 12:55:36;;;;;;;12.32;7.30;;;;;;;2.83;100.00;100722.78;5134594;27;20448;-83
2022/01/17 12:58:10;;;;;;;13.95;7.65;;;;;;;2.83;100.00;100733.53;5124975;27;20051;-83
2022/01/17 13:00:37;;;;;;;14.70;8.40;;;;;;;2.79;100.00;100723.91;5136234;27;20062;-83
2022/01/17 13:03:06;;;;;;;14.75;7.78;;;;;;;2.80;100.00;100725.66;5134896;27;20491;-83
2022/01/17 13:05:35;;;;;;;12.70;6.57;;;;;;;2.80;100.00;100704.16;5135632;27;20039;-83
2022/01/17 13:08:03;;;;;;;14.53;8.13;;;;;;;2.82;100.00;100696.00;5134237;27;20505;-83
2022/01/17 13:10:31;;;;;;;14.25;8.15;;;;;;;2.94;100.00;100697.91;5135645;27;20050;-83
2022/01/17 13:13:00;;;;;;;16.23;7.95;;;;;;;2.92;100.00;100690.91;5135237;27;20047;-83
2022/01/17 13:15:28;;;;;;;14.25;8.27;;;;;;;2.94;100.00;100689.84;5135261;27;20040;-83
2022/01/17 13:17:56;;;;;;;17.95;7.32;;;;;;;2.89;100.00;100694.66;5134933;27;20120;-83
2022/01/17 13:20:24;;;;;;;15.00;7.45;;;;;;;2.88;100.00;100686.72;5135474;27;20501;-82
2022/01/17 13:22:55;;;;;;;16.85;8.00;;;;;;;2.83;100.00;100684.28;5137276;27;20486;-83
2022/01/17 13:25:23;;;;;;;14.40;7.25;;;;;;;2.74;100.00;100676.81;5135433;27;20051;-82
2022/01/17 13:27:54;;;;;;;15.25;7.68;;;;;;;2.96;100.00;100689.75;5134663;27;20058;-82
2022/01/17 13:30:23;;;;;;;17.63;8.25;;;;;;;2.85;100.00;100671.63;5134975;27;20051;-83
2022/01/17 13:32:49;;;;;;;18.20;7.75;;;;;;;2.88;100.00;100681.34;5134528;27;20051;-83
2022/01/17 13:35:22;;;;;;;19.85;8.35;;;;;;;2.64;100.00;100658.59;5135156;27;20045;-84
2022/01/17 13:37:51;;;;;;;15.45;7.85;;;;;;;2.61;100.00;100658.81;5135258;27;20131;-83
2022/01/17 13:40:22;;;;;;;15.63;7.40;;;;;;;2.58;100.00;100650.94;5134411;27;20039;-83
2022/01/17 13:42:59;;;;;;;19.73;7.57;;;;;;;2.60;100.00;100624.00;5134410;27;20051;-83
2022/01/17 13:45:33;;;;;;;13.57;7.38;;;;;;;2.71;100.00;100628.69;5134654;27;20049;-84
2022/01/17 13:48:00;;;;;;;15.45;7.22;;;;;;;2.90;100.00;100648.00;5134556;27;20506;-83
2022/01/17 13:50:27;;;;;;;14.50;7.18;;;;;;;2.90;100.00;100636.41;5134627;27;20126;-83
2022/01/17 13:52:55;;;;;;;17.60;6.68;;;;;;;2.89;100.00;100623.94;5134117;27;20043;-83
2022/01/17 13:55:32;;;;;;;13.63;8.52;;;;;;;3.12;100.00;100622.44;5129869;27;20479;-83
2022/01/17 13:58:00;;;;;;;14.10;6.68;;;;;;;3.19;100.00;100613.88;5134173;27;20499;-83
2022/01/17 14:00:35;;;;;;;14.70;7.32;;;;;;;3.08;100.00;100616.41;5134307;27;20047;-83
2022/01/17 14:03:04;;;;;;;12.50;7.03;;;;;;;3.14;100.00;100607.06;5134265;27;20134;-83
2022/01/17 14:05:34;;;;;;;16.75;7.22;;;;;;;3.09;100.00;100633.41;5134521;27;20057;-83
2022/01/17 14:08:12;;;;;;;14.85;7.85;;;;;;;2.99;100.00;100623.22;5134039;27;20494;-83
2022/01/17 14:10:51;;;;;;;13.55;7.13;;;;;;;3.11;100.00;100645.75;5134222;27;20042;-83
2022/01/17 14:13:20;;;;;;;13.52;6.43;;;;;;;3.04;100.00;100648.94;5133786;27;20043;-83
2022/01/17 14:15:49;;;;;;;15.13;6.50;;;;;;;3.05;100.00;100654.22;5134023;27;20059;-83
2022/01/17 14:18:16;;;;;;;16.38;7.85;;;;;;;3.21;100.00;100674.72;5134730;27;20050;-83
2022/01/17 14:20:53;;;;;;;13.02;6.07;;;;;;;3.21;100.00;100680.09;5134068;27;20482;-83
2022/01/17 14:23:31;;;;;;;17.17;6.68;;;;;;;3.13;100.00;100661.78;5133974;27;20495;-83
2022/01/17 14:25:59;;;;;;;11.32;5.95;;;;;;;3.10;100.00;100661.97;5133939;27;20075;-83
2022/01/17 14:28:28;;;;;;;13.32;6.60;;;;;;;3.10;100.00;100656.59;5133786;27;20047;-83
2022/01/17 14:30:57;;;;;;;12.18;6.80;;;;;;;3.18;100.00;100676.66;5133167;27;20045;-83
2022/01/17 14:33:27;;;;;;;10.75;6.25;;;;;;;3.19;100.00;100685.56;5133705;28;20047;-83
2022/01/17 14:36:08;;;;;;;9.95;5.78;;;;;;;3.24;100.00;100694.19;5133956;27;20551;-83
2022/01/17 14:38:42;;;;;;;15.73;7.00;;;;;;;3.24;100.00;100702.25;5134257;28;20077;-83
2022/01/17 14:41:15;;;;;;;13.43;6.57;;;;;;;3.12;100.00;100701.22;5134113;28;20047;-83
2022/01/17 14:43:42;;;;;;;9.48;5.93;;;;;;;3.11;100.00;100712.94;5133887;28;20538;-83
2022/01/17 14:46:13;;;;;;;13.77;6.95;;;;;;;3.14;100.00;100698.44;5132977;27;20051;-83
2022/01/17 14:48:43;;;;;;;14.60;6.78;;;;;;;2.95;100.00;100679.97;5134055;28;20077;-83
2022/01/17 14:51:19;;;;;;;15.65;8.70;;;;;;;3.13;100.00;100697.59;5133803;28;20486;-83
2022/01/17 14:53:54;;;;;;;12.85;6.57;;;;;;;2.97;100.00;100688.78;5133591;28;20043;-83
2022/01/17 14:59:33;;;;;;;16.20;7.68;;;;;;;2.86;100.00;100699.34;5132363;28;20055;-83
2022/01/17 15:02:08;;;;;;;14.20;6.38;;;;;;;2.96;100.00;100705.88;5118008;28;20047;-85
2022/01/17 15:04:38;;;;;;;14.48;7.07;;;;;;;2.95;100.00;100686.22;5132316;28;20047;-83
2022/01/17 15:07:06;;;;;;;14.65;6.70;;;;;;;2.90;100.00;100682.09;5133816;28;20047;-83
2022/01/17 15:09:33;;;;;;;12.57;7.18;;;;;;;2.90;100.00;100693.69;5123746;27;20043;-83
2022/01/17 15:12:01;;;;;;;13.75;6.53;;;;;;;2.82;100.00;100702.22;5133595;28;20047;-83
2022/01/17 15:14:28;;;;;;;12.80;7.00;;;;;;;2.88;100.00;100713.56;5133254;28;20043;-82
2022/01/17 15:16:55;;;;;;;8.80;5.20;;;;;;;2.74;100.00;100688.44;5133497;28;20495;-83
2022/01/17 15:19:24;;;;;;;12.73;7.15;;;;;;;2.80;100.00;100711.34;5134336;27;20055;-83
2022/01/17 15:21:51;;;;;;;16.65;7.78;;;;;;;2.61;100.00;100704.44;5137028;27;20444;-83
2022/01/17 15:24:19;;;;;;;11.75;6.93;;;;;;;2.73;100.00;100732.38;5136924;27;20047;-83
2022/01/17 15:26:45;;;;;;;19.02;6.65;;;;;;;2.62;100.00;100724.97;5137282;27;20059;-83
2022/01/17 15:29:21;;;;;;;12.32;6.78;;;;;;;2.69;100.00;100740.72;5137138;27;20082;-83
2022/01/17 15:31:48;;;;;;;15.88;7.90;;;;;;;2.73;100.00;100735.06;5136960;27;20043;-82
2022/01/17 15:34:15;;;;;;;13.88;7.32;;;;;;;2.70;100.00;100720.97;5136686;27;20078;-83
2022/01/17 15:36:44;;;;;;;17.20;8.43;;;;;;;2.64;100.00;100728.44;5137069;27;20043;-83
2022/01/17 15:39:11;;;;;;;16.27;8.45;;;;;;;2.55;100.00;100712.91;5135998;27;20039;-83
2022/01/17 15:41:37;;;;;;;20.33;11.05;;;;;;;2.56;100.00;100724.47;5137293;27;20054;-83
2022/01/17 15:44:05;;;;;;;15.57;8.85;;;;;;;2.60;100.00;100739.47;5136778;27;20049;-83
2022/01/17 15:46:32;;;;;;;15.93;8.43;;;;;;;2.58;100.00;100750.28;5136063;27;20389;-83
2022/01/17 15:49:00;;;;;;;15.43;8.02;;;;;;;2.55;100.00;100726.31;5136831;27;20088;-83
2022/01/17 15:51:27;;;;;;;19.00;8.95;;;;;;;2.61;100.00;100736.69;5135707;27;20482;-83
2022/01/17 15:53:56;;;;;;;18.05;8.98;;;;;;;2.49;100.00;100745.50;5136109;27;20043;-84
2022/01/17 15:56:23;;;;;;;20.30;10.10;;;;;;;2.58;100.00;100755.66;5136009;27;20116;-83
2022/01/17 15:58:49;;;;;;;15.60;8.70;;;;;;;2.53;100.00;100762.25;5136888;27;20057;-83
2022/01/17 16:01:16;;;;;;;21.52;10.27;;;;;;;2.45;100.00;100752.00;5136283;27;20487;-82
2022/01/17 16:03:43;;;;;;;15.77;9.13;;;;;;;2.44;100.00;100750.28;5136182;27;20051;-83
2022/01/17 16:06:10;;;;;;;18.42;9.80;;;;;;;2.43;100.00;100748.56;5132712;27;20055;-83
2022/01/17 16:08:40;;;;;;;15.40;9.10;;;;;;;2.53;100.00;100773.00;5115827;28;20126;-83
2022/01/17 16:11:08;;;;;;;16.85;9.82;;;;;;;2.44;100.00;100756.50;5133233;27;20051;-83
2022/01/17 16:13:35;;;;;;;19.95;10.25;;;;;;;2.52;100.00;100787.41;5135910;27;20051;-82
2022/01/17 16:16:02;;;;;;;17.80;9.57;;;;;;;2.39;100.00;100757.75;5123758;27;20059;-82
2022/01/17 16:18:29;;;;;;;18.17;10.38;;;;;;;2.37;100.00;100768.56;5135976;27;20051;-83
2022/01/17 16:20:56;;;;;;;16.75;10.10;;;;;;;2.48;100.00;100789.41;5136207;27;20406;-88
2022/01/17 16:23:24;;;;;;;19.58;10.30;;;;;;;2.47;100.00;100775.13;5117731;27;20501;-83
2022/01/17 16:25:52;;;;;;;20.50;9.98;;;;;;;2.44;100.00;100791.41;5136171;27;20122;-83
2022/01/17 16:28:23;;;;;;;18.40;10.13;;;;;;;2.48;100.00;100784.03;5136349;27;20058;-83
2022/01/17 16:30:50;;;;;;;21.20;10.80;;;;;;;2.51;100.00;100789.22;5135575;27;20043;-83
2022/01/17 16:33:17;;;;;;;20.75;10.68;;;;;;;2.44;100.00;100791.41;5135488;27;20048;-83
2022/01/17 16:35:45;;;;;;;26.02;12.07;;;;;;;2.44;100.00;100777.13;5118687;27;20088;-83
2022/01/17 16:38:12;;;;;;;17.95;9.75;;;;;;;2.43;100.00;100764.66;5135913;27;20483;-83
2022/01/17 16:40:43;;;;;;;19.00;10.18;;;;;;;2.42;100.00;100769.16;5119695;27;20051;-83
2022/01/17 16:43:10;;;;;;;17.85;8.70;;;;;;;2.50;100.00;100790.19;5135634;27;20063;-83
2022/01/17 16:45:52;;;;;;;22.50;10.80;;;;;;;2.54;100.00;100789.00;5135505;27;20096;-83
2022/01/17 16:48:22;;;;;;;25.25;10.73;;;;;;;2.50;100.00;100790.19;5135015;27;20491;-83
2022/01/17 16:50:50;;;;;;;21.50;10.63;;;;;;;2.53;100.00;100794.47;5135555;27;20051;-83
2022/01/17 16:53:17;;;;;;;19.52;11.35;;;;;;;2.37;100.00;100779.31;5134980;27;20054;-83
2022/01/17 16:55:44;;;;;;;21.88;10.55;;;;;;;2.37;100.00;100783.81;5135023;27;20071;-83
2022/01/17 16:58:11;;;;;;;21.02;11.00;;;;;;;2.41;100.00;100796.97;5130086;27;20089;-83
2022/01/17 17:00:39;;;;;;;25.48;11.75;;;;;;;2.34;100.00;100784.88;5132540;27;20047;-83
2022/01/17 17:03:06;;;;;;;18.85;9.35;;;;;;;2.26;100.00;100779.09;5133639;27;20054;-82
2022/01/17 17:05:33;;;;;;;18.88;10.23;;;;;;;2.23;100.00;100790.88;5134938;27;20047;-82
2022/01/17 17:08:05;;;;;;;23.70;11.32;;;;;;;2.29;100.00;100771.72;5133219;27;20545;-82
2022/01/17 17:10:32;;;;;;;21.70;11.02;;;;;;;2.19;100.00;100767.88;5130559;27;20069;-82
2022/01/17 17:13:00;;;;;;;28.02;10.80;;;;;;;2.21;100.00;100774.00;5127848;27;20490;-82
2022/01/17 17:15:27;;;;;;;22.90;11.68;;;;;;;2.24;100.00;100771.16;5131340;27;20454;-82
2022/01/17 17:17:56;;;;;;;22.73;11.98;;;;;;;2.18;100.00;100784.91;5131894;27;20055;-82
2022/01/17 17:20:23;;;;;;;25.05;11.30;;;;;;;2.12;100.00;100783.47;5130358;27;20054;-82
2022/01/17 17:22:50;;;;;;;25.75;11.85;;;;;;;2.17;100.00;100801.97;5131391;27;20146;-82
2022/01/17 17:25:16;;;;;;;26.50;12.32;;;;;;;2.19;100.00;100794.69;5130284;27;20051;-82
2022/01/17 17:27:47;;;;;;;26.33;11.90;;;;;;;2.18;100.00;100797.47;5130038;27;20035;-82
2022/01/17 17:30:15;;;;;;;20.30;11.23;;;;;;;2.18;100.00;100800.16;5123535;27;20142;-82
2022/01/17 17:32:42;;;;;;;22.70;11.20;;;;;;;2.23;100.00;100830.25;5132072;27;20051;-82
2022/01/17 17:35:10;;;;;;;21.23;11.85;;;;;;;2.16;100.00;100820.84;5131023;27;20058;-82
2022/01/17 17:37:37;;;;;;;23.52;12.48;;;;;;;2.15;100.00;100805.69;5130726;27;20397;-81
2022/01/17 17:40:05;;;;;;;24.88;13.05;;;;;;;2.13;100.00;100801.28;5130704;27;20425;-82
2022/01/17 17:42:32;;;;;;;29.85;14.00;;;;;;;2.18;100.00;100814.41;5121966;27;20055;-82
2022/01/17 17:45:00;;;;;;;32.50;14.50;;;;;;;2.22;100.00;100823.19;5131333;27;20193;-82
2022/01/17 17:47:28;;;;;;;28.17;13.57;;;;;;;2.19;100.00;100815.31;5122853;27;20050;-82
2022/01/17 17:49:58;;;;;;;25.83;13.10;;;;;;;2.23;100.00;100840.97;5142205;27;20043;-82
2022/01/17 17:52:26;;;;;;;26.13;12.43;;;;;;;2.22;100.00;100848.19;5132700;27;20065;-82
2022/01/17 17:54:53;;;;;;;23.33;12.07;;;;;;;2.09;100.00;100840.00;5131145;27;20316;-82
2022/01/17 17:57:19;;;;;;;23.77;12.77;;;;;;;2.16;100.00;100845.00;5122330;27;20544;-82
2022/01/17 17:59:47;;;;;;;25.95;11.90;;;;;;;2.15;100.00;100840.59;5128251;27;20388;-82
2022/01/17 18:02:14;;;;;;;26.23;13.10;;;;;;;2.15;100.00;100840.59;5131357;27;20040;-82
2022/01/17 18:04:41;;;;;;;26.17;13.60;;;;;;;2.16;100.00;100837.81;5132327;27;20062;-82
2022/01/17 18:07:08;;;;;;;26.70;13.18;;;;;;;2.01;100.00;100823.47;5131278;27;20066;-82
2022/01/17 18:09:36;;;;;;;26.67;12.55;;;;;;;2.14;100.00;100839.72;5132864;27;20479;-82
2022/01/17 18:12:04;;;;;;;30.42;12.68;;;;;;;2.13;100.00;100838.84;5129859;27;20062;-82
2022/01/17 18:14:30;;;;;;;25.45;12.43;;;;;;;1.98;100.00;100825.47;5131482;27;20051;-81
2022/01/17 18:16:57;;;;;;;22.35;11.77;;;;;;;2.03;100.00;100842.16;5127667;27;20054;-82
2022/01/17 18:19:27;;;;;;;30.15;12.38;;;;;;;2.04;100.00;100839.38;5133416;27;20120;-85
2022/01/17 18:21:56;;;;;;;29.48;13.45;;;;;;;2.11;100.00;100839.91;5122227;27;20558;-82
2022/01/17 18:24:23;;;;;;;23.67;12.40;;;;;;;2.02;100.00;100830.56;5133376;27;20055;-81
2022/01/17 18:26:51;;;;;;;25.30;14.18;;;;;;;1.99;100.00;100817.34;5133170;27;20119;-82
2022/01/17 18:29:18;;;;;;;30.77;13.38;;;;;;;2.16;100.00;100840.50;5132093;27;20124;-81
2022/01/17 18:31:45;;;;;;;27.75;13.57;;;;;;;2.08;100.00;100843.63;5131412;27;20395;-82
2022/01/17 18:34:12;;;;;;;24.67;13.60;;;;;;;2.18;100.00;100843.09;5131746;27;20043;-81
2022/01/17 18:36:39;;;;;;;27.40;14.18;;;;;;;2.04;100.00;100819.75;5132086;27;20051;-82
2022/01/17 18:39:06;;;;;;;24.63;12.40;;;;;;;2.23;100.00;100843.66;5130609;27;20509;-82
2022/01/17 18:41:33;;;;;;;30.02;12.98;;;;;;;2.09;100.00;100826.59;5131384;27;20478;-82
2022/01/17 18:44:02;;;;;;;25.58;13.73;;;;;;;2.17;100.00;100842.22;5131728;27;20047;-82
2022/01/17 18:46:30;;;;;;;27.70;13.63;;;;;;;2.17;100.00;100846.72;5132433;27;20047;-82
2022/01/17 18:48:59;;;;;;;27.05;13.57;;;;;;;2.09;100.00;100837.31;5132196;27;20541;-81
2022/01/17 18:51:28;;;;;;;25.55;13.27;;;;;;;2.20;100.00;100857.25;5131579;27;20100;-82
2022/01/17 18:53:56;;;;;;;25.80;13.27;;;;;;;2.20;100.00;100831.31;5131006;27;20047;-81
2022/01/17 18:56:24;;;;;;;26.88;13.70;;;;;;;2.39;100.00;100852.53;5132941;27;20039;-82
2022/01/17 18:58:54;;;;;;;31.42;14.27;;;;;;;2.16;100.00;100850.38;5135567;27;20047;-84
2022/01/17 19:01:25;;;;;;;26.27;12.18;;;;;;;2.22;100.00;100856.22;5136910;27;20055;-81
2022/01/17 19:03:52;;;;;;;29.38;15.40;;;;;;;2.28;100.00;100855.88;5137238;27;20502;-82
2022/01/17 19:06:19;;;;;;;33.35;16.42;;;;;;;2.24;100.00;100850.78;5137467;27;20055;-81
2022/01/17 19:08:45;;;;;;;37.42;15.40;;;;;;;2.22;100.00;100853.56;5132998;27;20055;-81
2022/01/17 19:11:14;;;;;;;31.75;15.25;;;;;;;2.33;100.00;100866.34;5137249;27;20053;-82
2022/01/17 19:13:41;;;;;;;39.20;17.27;;;;;;;2.33;100.00;100869.00;5137077;27;20130;-81
2022/01/17 19:16:08;;;;;;;34.28;17.00;;;;;;;2.17;100.00;100842.22;5136654;27;20039;-82
2022/01/17 19:19:00;;;;;;;37.15;18.65;;;;;;;2.26;100.00;100859.63;5137416;27;20062;-82
2022/01/17 19:24:17;;;;;;;29.38;15.45;;;;;;;2.26;100.00;100873.88;5130642;27;20713;-82
2022/01/17 19:26:45;;;;;;;29.05;14.75;;;;;;;2.23;100.00;100871.38;5136557;27;20051;-81
2022/01/17 19:29:12;;;;;;;27.33;14.30;;;;;;;2.24;100.00;100870.44;5137017;27;20383;-81
2022/01/17 19:31:40;;;;;;;28.70;12.85;;;;;;;2.28;100.00;100865.75;5136913;27;20051;-82
2022/01/17 19:34:08;;;;;;;28.15;13.57;;;;;;;2.32;100.00;100877.16;5136788;27;20061;-82
2022/01/17 19:36:35;;;;;;;28.65;15.35;;;;;;;2.43;100.00;100878.25;5136740;27;20043;-82
2022/01/17 19:39:03;;;;;;;30.60;12.98;;;;;;;2.37;100.00;100875.94;5119754;27;20092;-82